sensor_id;sensor_type;location;lat;lon;timestamp;pressure;altitude;pressure_sealevel;temperature;humidity
40245;BME280;25963;42.694;23.600;2022-07-05T00:00:49;95338.19;;;24.98;47.11
40245;BME280;25963;42.694;23.600;2022-07-05T00:03:15;95339.50;;;24.87;45.38
40245;BME280;25963;42.694;23.600;2022-07-05T00:05:41;95339.94;;;25.17;45.99
40245;BME280;25963;42.694;23.600;2022-07-05T00:08:07;95332.97;;;25.02;44.90
40245;BME280;25963;42.694;23.600;2022-07-05T00:10:34;95332.38;;;25.27;44.12
40245;BME280;25963;42.694;23.600;2022-07-05T00:12:59;95336.78;;;25.37;44.50
40245;BME280;25963;42.694;23.600;2022-07-05T00:15:25;95338.38;;;25.02;44.54
40245;BME280;25963;42.694;23.600;2022-07-05T00:17:50;95326.53;;;25.25;44.75
40245;BME280;25963;42.694;23.600;2022-07-05T00:20:16;95339.66;;;25.04;44.85
40245;BME280;25963;42.694;23.600;2022-07-05T00:22:42;95339.00;;;24.85;45.17
40245;BME280;25963;42.694;23.600;2022-07-05T00:25:08;95337.75;;;24.69;45.60
40245;BME280;25963;42.694;23.600;2022-07-05T00:27:33;95343.84;;;24.74;45.70
40245;BME280;25963;42.694;23.600;2022-07-05T00:29:59;95341.81;;;24.80;45.47
40245;BME280;25963;42.694;23.600;2022-07-05T00:32:24;95337.66;;;24.46;46.09
40245;BME280;25963;42.694;23.600;2022-07-05T00:34:49;95343.13;;;24.13;47.20
40245;BME280;25963;42.694;23.600;2022-07-05T00:37:15;95337.22;;;23.98;47.61
40245;BME280;25963;42.694;23.600;2022-07-05T00:39:41;95323.44;;;24.41;46.25
40245;BME280;25963;42.694;23.600;2022-07-05T00:42:06;95307.00;;;24.42;46.26
40245;BME280;25963;42.694;23.600;2022-07-05T00:44:34;95323.06;;;24.06;47.44
40245;BME280;25963;42.694;23.600;2022-07-05T00:47:01;95322.47;;;24.23;47.23
40245;BME280;25963;42.694;23.600;2022-07-05T00:49:28;95319.84;;;23.90;47.52
40245;BME280;25963;42.694;23.600;2022-07-05T00:51:53;95320.84;;;24.08;47.36
40245;BME280;25963;42.694;23.600;2022-07-05T00:54:19;95329.03;;;24.17;47.17
40245;BME280;25963;42.694;23.600;2022-07-05T00:56:45;95322.06;;;23.88;47.59
40245;BME280;25963;42.694;23.600;2022-07-05T00:59:11;95328.75;;;24.18;47.33
40245;BME280;25963;42.694;23.600;2022-07-05T01:01:36;95319.66;;;24.14;47.57
40245;BME280;25963;42.694;23.600;2022-07-05T01:04:01;95325.88;;;24.14;47.64
40245;BME280;25963;42.694;23.600;2022-07-05T01:06:27;95319.97;;;23.66;48.42
40245;BME280;25963;42.694;23.600;2022-07-05T01:08:52;95318.94;;;23.81;48.29
40245;BME280;25963;42.694;23.600;2022-07-05T01:11:18;95316.16;;;24.13;47.50
40245;BME280;25963;42.694;23.600;2022-07-05T01:13:43;95306.47;;;24.40;46.04
40245;BME280;25963;42.694;23.600;2022-07-05T01:16:09;95321.16;;;23.92;47.25
40245;BME280;25963;42.694;23.600;2022-07-05T01:18:35;95319.44;;;23.83;46.35
40245;BME280;25963;42.694;23.600;2022-07-05T01:21:02;95316.94;;;23.73;47.76
40245;BME280;25963;42.694;23.600;2022-07-05T01:23:30;95303.75;;;23.24;48.35
40245;BME280;25963;42.694;23.600;2022-07-05T01:25:57;95313.09;;;23.60;48.48
40245;BME280;25963;42.694;23.600;2022-07-05T01:28:24;95319.56;;;23.59;47.80
40245;BME280;25963;42.694;23.600;2022-07-05T01:30:49;95318.47;;;23.60;47.62
40245;BME280;25963;42.694;23.600;2022-07-05T01:33:15;95316.69;;;23.55;48.16
40245;BME280;25963;42.694;23.600;2022-07-05T01:35:41;95319.56;;;23.59;47.84
40245;BME280;25963;42.694;23.600;2022-07-05T01:38:06;95329.03;;;23.89;46.93
40245;BME280;25963;42.694;23.600;2022-07-05T01:40:32;95324.84;;;23.83;47.54
40245;BME280;25963;42.694;23.600;2022-07-05T01:42:58;95325.94;;;23.63;47.27
40245;BME280;25963;42.694;23.600;2022-07-05T01:45:23;95330.91;;;23.75;47.29
40245;BME280;25963;42.694;23.600;2022-07-05T01:48:07;95329.94;;;23.65;47.61
40245;BME280;25963;42.694;23.600;2022-07-05T01:50:41;95328.03;;;23.52;48.29
40245;BME280;25963;42.694;23.600;2022-07-05T01:53:11;95327.63;;;22.50;50.29
40245;BME280;25963;42.694;23.600;2022-07-05T01:55:39;95328.84;;;22.58;50.42
40245;BME280;25963;42.694;23.600;2022-07-05T01:58:05;95327.81;;;22.35;51.56
40245;BME280;25963;42.694;23.600;2022-07-05T02:00:47;95322.63;;;22.44;51.35
40245;BME280;25963;42.694;23.600;2022-07-05T02:03:14;95334.47;;;22.81;50.88
40245;BME280;25963;42.694;23.600;2022-07-05T02:05:41;95327.22;;;23.00;48.73
40245;BME280;25963;42.694;23.600;2022-07-05T02:08:07;95337.75;;;22.77;48.96
40245;BME280;25963;42.694;23.600;2022-07-05T02:10:35;95332.06;;;22.79;50.14
40245;BME280;25963;42.694;23.600;2022-07-05T02:13:01;95333.28;;;22.49;50.39
40245;BME280;25963;42.694;23.600;2022-07-05T02:15:26;95331.25;;;21.63;52.91
40245;BME280;25963;42.694;23.600;2022-07-05T02:17:52;95328.78;;;21.38;54.19
40245;BME280;25963;42.694;23.600;2022-07-05T02:20:17;95335.66;;;21.78;52.79
40245;BME280;25963;42.694;23.600;2022-07-05T02:22:43;95344.47;;;21.55;53.34
40245;BME280;25963;42.694;23.600;2022-07-05T02:25:10;95339.75;;;21.71;52.71
40245;BME280;25963;42.694;23.600;2022-07-05T02:27:36;95324.94;;;21.78;52.31
40245;BME280;25963;42.694;23.600;2022-07-05T02:30:01;95333.16;;;21.58;52.58
40245;BME280;25963;42.694;23.600;2022-07-05T02:32:27;95337.16;;;21.26;53.89
40245;BME280;25963;42.694;23.600;2022-07-05T02:34:52;95327.16;;;21.42;53.79
40245;BME280;25963;42.694;23.600;2022-07-05T02:37:18;95334.53;;;21.84;52.86
40245;BME280;25963;42.694;23.600;2022-07-05T02:39:43;95321.13;;;22.32;51.28
40245;BME280;25963;42.694;23.600;2022-07-05T02:42:08;95334.38;;;21.71;53.12
40245;BME280;25963;42.694;23.600;2022-07-05T02:44:34;95330.44;;;21.63;53.49
40245;BME280;25963;42.694;23.600;2022-07-05T02:47:00;95325.31;;;21.67;53.21
40245;BME280;25963;42.694;23.600;2022-07-05T02:49:25;95328.00;;;21.67;53.41
40245;BME280;25963;42.694;23.600;2022-07-05T02:51:52;95327.38;;;21.75;52.89
40245;BME280;25963;42.694;23.600;2022-07-05T02:54:18;95333.34;;;21.37;54.37
40245;BME280;25963;42.694;23.600;2022-07-05T02:56:43;95331.88;;;21.16;55.50
40245;BME280;25963;42.694;23.600;2022-07-05T02:59:08;95322.25;;;21.10;55.98
40245;BME280;25963;42.694;23.600;2022-07-05T03:01:34;95319.81;;;20.79;56.67
40245;BME280;25963;42.694;23.600;2022-07-05T03:03:59;95335.69;;;21.05;56.29
40245;BME280;25963;42.694;23.600;2022-07-05T03:06:25;95333.19;;;20.79;56.94
40245;BME280;25963;42.694;23.600;2022-07-05T03:08:51;95333.03;;;21.05;55.94
40245;BME280;25963;42.694;23.600;2022-07-05T03:11:17;95338.22;;;21.30;55.22
40245;BME280;25963;42.694;23.600;2022-07-05T03:13:42;95324.72;;;21.35;54.80
40245;BME280;25963;42.694;23.600;2022-07-05T03:16:07;95337.28;;;21.74;54.14
40245;BME280;25963;42.694;23.600;2022-07-05T03:18:33;95332.25;;;21.68;54.01
40245;BME280;25963;42.694;23.600;2022-07-05T03:20:58;95333.56;;;21.75;53.81
40245;BME280;25963;42.694;23.600;2022-07-05T03:23:24;95327.47;;;21.64;53.89
40245;BME280;25963;42.694;23.600;2022-07-05T03:25:49;95324.94;;;21.78;53.70
40245;BME280;25963;42.694;23.600;2022-07-05T03:28:15;95318.66;;;21.59;54.36
40245;BME280;25963;42.694;23.600;2022-07-05T03:30:40;95333.66;;;21.89;54.16
40245;BME280;25963;42.694;23.600;2022-07-05T03:33:08;95322.78;;;23.09;50.85
40245;BME280;25963;42.694;23.600;2022-07-05T03:35:34;95323.13;;;23.87;47.76
40245;BME280;25963;42.694;23.600;2022-07-05T03:37:59;95326.06;;;24.04;47.08
40245;BME280;25963;42.694;23.600;2022-07-05T03:40:25;95316.47;;;23.84;47.34
40245;BME280;25963;42.694;23.600;2022-07-05T03:42:50;95313.53;;;23.34;48.87
40245;BME280;25963;42.694;23.600;2022-07-05T03:45:16;95314.03;;;23.36;48.20
40245;BME280;25963;42.694;23.600;2022-07-05T03:47:41;95313.28;;;23.82;47.25
40245;BME280;25963;42.694;23.600;2022-07-05T03:50:07;95315.47;;;24.22;47.13
40245;BME280;25963;42.694;23.600;2022-07-05T03:52:32;95314.88;;;24.38;46.07
40245;BME280;25963;42.694;23.600;2022-07-05T03:54:58;95320.06;;;24.21;45.85
40245;BME280;25963;42.694;23.600;2022-07-05T03:57:24;95321.66;;;24.64;45.42
40245;BME280;25963;42.694;23.600;2022-07-05T03:59:49;95316.06;;;25.33;44.06
40245;BME280;25963;42.694;23.600;2022-07-05T04:02:14;95316.47;;;26.33;41.68
40245;BME280;25963;42.694;23.600;2022-07-05T04:04:40;95308.63;;;27.50;39.16
40245;BME280;25963;42.694;23.600;2022-07-05T04:07:05;95301.00;;;28.46;36.57
40245;BME280;25963;42.694;23.600;2022-07-05T04:09:31;95306.03;;;29.07;35.63
40245;BME280;25963;42.694;23.600;2022-07-05T04:11:56;95288.91;;;29.94;34.40
40245;BME280;25963;42.694;23.600;2022-07-05T04:14:22;95297.13;;;31.20;32.27
40245;BME280;25963;42.694;23.600;2022-07-05T04:16:47;95296.56;;;31.99;30.62
40245;BME280;25963;42.694;23.600;2022-07-05T04:19:13;95308.19;;;32.43;29.90
40245;BME280;25963;42.694;23.600;2022-07-05T04:21:38;95303.47;;;31.80;30.19
40245;BME280;25963;42.694;23.600;2022-07-05T04:24:04;95301.94;;;32.11;29.61
40245;BME280;25963;42.694;23.600;2022-07-05T04:26:30;95298.31;;;32.90;28.85
40245;BME280;25963;42.694;23.600;2022-07-05T04:28:55;95297.09;;;33.42;28.18
40245;BME280;25963;42.694;23.600;2022-07-05T04:31:20;95293.91;;;33.79;27.30
40245;BME280;25963;42.694;23.600;2022-07-05T04:33:51;95299.41;;;34.25;27.57
40245;BME280;25963;42.694;23.600;2022-07-05T04:36:18;95285.31;;;35.03;26.49
40245;BME280;25963;42.694;23.600;2022-07-05T04:38:43;95303.47;;;35.44;25.22
40245;BME280;25963;42.694;23.600;2022-07-05T04:41:09;95295.63;;;35.77;24.99
40245;BME280;25963;42.694;23.600;2022-07-05T04:43:34;95306.13;;;35.67;25.01
40245;BME280;25963;42.694;23.600;2022-07-05T04:46:00;95303.63;;;36.30;25.13
40245;BME280;25963;42.694;23.600;2022-07-05T04:48:25;95300.94;;;36.96;23.77
40245;BME280;25963;42.694;23.600;2022-07-05T04:50:51;95303.97;;;37.46;23.04
40245;BME280;25963;42.694;23.600;2022-07-05T04:53:16;95307.28;;;38.02;22.28
40245;BME280;25963;42.694;23.600;2022-07-05T04:55:41;95304.13;;;37.96;22.82
40245;BME280;25963;42.694;23.600;2022-07-05T04:58:07;95310.88;;;38.67;21.97
40245;BME280;25963;42.694;23.600;2022-07-05T05:00:35;95281.34;;;38.17;21.53
40245;BME280;25963;42.694;23.600;2022-07-05T05:03:00;95292.38;;;38.39;21.58
40245;BME280;25963;42.694;23.600;2022-07-05T05:05:25;95297.88;;;38.03;21.75
40245;BME280;25963;42.694;23.600;2022-07-05T05:07:51;95310.06;;;38.73;22.36
40245;BME280;25963;42.694;23.600;2022-07-05T05:10:16;95302.59;;;38.38;20.96
40245;BME280;25963;42.694;23.600;2022-07-05T05:12:42;95319.00;;;37.74;21.79
40245;BME280;25963;42.694;23.600;2022-07-05T05:15:08;95299.03;;;37.98;21.81
40245;BME280;25963;42.694;23.600;2022-07-05T05:17:42;95307.31;;;38.73;21.19
40245;BME280;25963;42.694;23.600;2022-07-05T05:20:13;95310.84;;;38.09;20.25
40245;BME280;25963;42.694;23.600;2022-07-05T05:22:43;95301.44;;;38.39;20.74
40245;BME280;25963;42.694;23.600;2022-07-05T05:25:11;95315.53;;;39.09;20.77
40245;BME280;25963;42.694;23.600;2022-07-05T05:27:45;95304.59;;;38.52;20.95
40245;BME280;25963;42.694;23.600;2022-07-05T05:30:12;95307.31;;;38.70;20.71
40245;BME280;25963;42.694;23.600;2022-07-05T05:32:37;95312.06;;;38.87;21.11
40245;BME280;25963;42.694;23.600;2022-07-05T05:35:03;95306.13;;;38.99;20.02
40245;BME280;25963;42.694;23.600;2022-07-05T05:37:29;95307.66;;;39.04;19.35
40245;BME280;25963;42.694;23.600;2022-07-05T05:39:54;95309.28;;;38.30;20.72
40245;BME280;25963;42.694;23.600;2022-07-05T05:42:20;95308.50;;;38.62;20.16
40245;BME280;25963;42.694;23.600;2022-07-05T05:44:45;95305.75;;;38.62;20.09
40245;BME280;25963;42.694;23.600;2022-07-05T05:47:11;95301.44;;;38.53;19.99
40245;BME280;25963;42.694;23.600;2022-07-05T05:49:37;95306.84;;;37.89;20.41
40245;BME280;25963;42.694;23.600;2022-07-05T05:52:02;95299.75;;;37.81;20.81
40245;BME280;25963;42.694;23.600;2022-07-05T05:54:28;95298.66;;;38.10;20.58
40245;BME280;25963;42.694;23.600;2022-07-05T05:56:53;95299.50;;;38.50;20.72
40245;BME280;25963;42.694;23.600;2022-07-05T05:59:19;95300.63;;;38.35;20.49
40245;BME280;25963;42.694;23.600;2022-07-05T06:01:44;95309.72;;;38.57;20.29
40245;BME280;25963;42.694;23.600;2022-07-05T06:04:10;95301.78;;;38.91;20.57
40245;BME280;25963;42.694;23.600;2022-07-05T06:06:35;95295.94;;;38.57;20.29
40245;BME280;25963;42.694;23.600;2022-07-05T06:09:01;95299.75;;;39.20;20.66
40245;BME280;25963;42.694;23.600;2022-07-05T06:11:26;95294.75;;;38.44;20.53
40245;BME280;25963;42.694;23.600;2022-07-05T06:13:52;95301.03;;;38.87;20.82
40245;BME280;25963;42.694;23.600;2022-07-05T06:16:17;95308.47;;;38.97;20.30
40245;BME280;25963;42.694;23.600;2022-07-05T06:18:43;95307.75;;;38.68;20.86
40245;BME280;25963;42.694;23.600;2022-07-05T06:21:08;95316.34;;;39.13;20.61
40245;BME280;25963;42.694;23.600;2022-07-05T06:23:33;95302.22;;;38.65;22.50
40245;BME280;25963;42.694;23.600;2022-07-05T06:25:59;95315.53;;;39.16;22.17
40245;BME280;25963;42.694;23.600;2022-07-05T06:28:24;95319.47;;;39.22;23.19
40245;BME280;25963;42.694;23.600;2022-07-05T06:30:50;95314.00;;;38.97;20.97
40245;BME280;25963;42.694;23.600;2022-07-05T06:33:15;95308.06;;;39.02;20.30
40245;BME280;25963;42.694;23.600;2022-07-05T06:35:41;95311.22;;;39.08;22.10
40245;BME280;25963;42.694;23.600;2022-07-05T06:38:08;95315.56;;;38.16;21.12
40245;BME280;25963;42.694;23.600;2022-07-05T06:40:44;95309.28;;;38.73;20.46
40245;BME280;25963;42.694;23.600;2022-07-05T06:43:12;95304.97;;;38.65;21.81
40245;BME280;25963;42.694;23.600;2022-07-05T06:45:38;95295.53;;;38.41;21.76
40245;BME280;25963;42.694;23.600;2022-07-05T06:48:09;95301.56;;;37.37;21.72
40245;BME280;25963;42.694;23.600;2022-07-05T06:50:37;95298.19;;;37.76;22.40
40245;BME280;25963;42.694;23.600;2022-07-05T06:53:03;95298.25;;;37.94;21.44
40245;BME280;25963;42.694;23.600;2022-07-05T06:55:29;95305.19;;;37.59;20.83
40245;BME280;25963;42.694;23.600;2022-07-05T06:58:05;95292.63;;;37.65;23.00
40245;BME280;25963;42.694;23.600;2022-07-05T07:00:31;95288.47;;;37.09;22.01
40245;BME280;25963;42.694;23.600;2022-07-05T07:02:57;95294.91;;;36.72;22.06
40245;BME280;25963;42.694;23.600;2022-07-05T07:05:23;95274.00;;;37.23;21.97
40245;BME280;25963;42.694;23.600;2022-07-05T07:07:49;95272.97;;;37.49;25.13
40245;BME280;25963;42.694;23.600;2022-07-05T07:10:33;95284.72;;;37.46;21.04
40245;BME280;25963;42.694;23.600;2022-07-05T07:13:00;95279.88;;;37.21;21.57
40245;BME280;25963;42.694;23.600;2022-07-05T07:15:26;95274.16;;;37.62;20.86
40245;BME280;25963;42.694;23.600;2022-07-05T07:17:52;95278.47;;;37.53;20.88
40245;BME280;25963;42.694;23.600;2022-07-05T07:20:21;95280.75;;;37.43;20.57
40245;BME280;25963;42.694;23.600;2022-07-05T07:22:47;95261.09;;;37.38;22.84
40245;BME280;25963;42.694;23.600;2022-07-05T07:25:12;95273.06;;;37.99;24.33
40245;BME280;25963;42.694;23.600;2022-07-05T07:30:09;95274.97;;;37.74;21.74
40245;BME280;25963;42.694;23.600;2022-07-05T07:32:35;95263.19;;;37.77;20.39
40245;BME280;25963;42.694;23.600;2022-07-05T07:35:00;95262.06;;;38.06;23.81
40245;BME280;25963;42.694;23.600;2022-07-05T07:37:26;95270.72;;;38.30;23.95
40245;BME280;25963;42.694;23.600;2022-07-05T07:39:51;95267.56;;;38.64;22.36
40245;BME280;25963;42.694;23.600;2022-07-05T07:42:17;95270.72;;;38.33;21.31
40245;BME280;25963;42.694;23.600;2022-07-05T07:44:42;95265.63;;;38.00;21.58
40245;BME280;25963;42.694;23.600;2022-07-05T07:47:08;95279.72;;;37.91;20.56
40245;BME280;25963;42.694;23.600;2022-07-05T07:49:33;95282.44;;;37.84;21.07
40245;BME280;25963;42.694;23.600;2022-07-05T07:51:59;95265.59;;;38.10;23.94
40245;BME280;25963;42.694;23.600;2022-07-05T07:54:24;95268.94;;;37.36;21.25
40245;BME280;25963;42.694;23.600;2022-07-05T07:56:49;95273.38;;;37.58;22.50
40245;BME280;25963;42.694;23.600;2022-07-05T07:59:15;95274.66;;;38.00;22.17
40245;BME280;25963;42.694;23.600;2022-07-05T08:01:41;95271.53;;;38.48;20.50
40245;BME280;25963;42.694;23.600;2022-07-05T08:04:06;95263.63;;;38.36;20.86
40245;BME280;25963;42.694;23.600;2022-07-05T08:06:31;95266.41;;;38.57;21.39
40245;BME280;25963;42.694;23.600;2022-07-05T08:08:57;95265.16;;;37.73;19.71
40245;BME280;25963;42.694;23.600;2022-07-05T08:11:22;95275.44;;;38.04;20.86
40245;BME280;25963;42.694;23.600;2022-07-05T08:13:48;95258.16;;;38.50;22.07
40245;BME280;25963;42.694;23.600;2022-07-05T08:16:14;95263.56;;;39.00;19.86
40245;BME280;25963;42.694;23.600;2022-07-05T08:18:39;95269.06;;;39.08;20.72
40245;BME280;25963;42.694;23.600;2022-07-05T08:21:24;95267.53;;;38.81;21.58
40245;BME280;25963;42.694;23.600;2022-07-05T08:26:32;95255.78;;;38.27;21.11
40245;BME280;25963;42.694;23.600;2022-07-05T08:28:59;95260.50;;;38.41;21.94
40245;BME280;25963;42.694;23.600;2022-07-05T08:31:30;95260.09;;;38.21;19.73
40245;BME280;25963;42.694;23.600;2022-07-05T08:33:57;95249.84;;;38.61;22.56
40245;BME280;25963;42.694;23.600;2022-07-05T08:36:23;95264.41;;;38.26;18.92
40245;BME280;25963;42.694;23.600;2022-07-05T08:38:48;95257.34;;;38.21;23.14
40245;BME280;25963;42.694;23.600;2022-07-05T08:41:17;95254.16;;;38.76;21.56
40245;BME280;25963;42.694;23.600;2022-07-05T08:43:44;95235.97;;;39.08;22.97
40245;BME280;25963;42.694;23.600;2022-07-05T08:46:11;95265.06;;;39.30;23.02
40245;BME280;25963;42.694;23.600;2022-07-05T08:48:38;95243.81;;;39.20;20.90
40245;BME280;25963;42.694;23.600;2022-07-05T08:51:21;95255.19;;;39.22;22.53
40245;BME280;25963;42.694;23.600;2022-07-05T08:53:50;95255.22;;;39.25;18.47
40245;BME280;25963;42.694;23.600;2022-07-05T08:56:17;95242.00;;;38.09;20.29
40245;BME280;25963;42.694;23.600;2022-07-05T08:58:42;95241.88;;;39.13;22.06
40245;BME280;25963;42.694;23.600;2022-07-05T09:01:09;95240.16;;;39.44;21.24
40245;BME280;25963;42.694;23.600;2022-07-05T09:03:42;95234.91;;;39.68;23.63
40245;BME280;25963;42.694;23.600;2022-07-05T09:06:10;95239.53;;;39.85;19.75
40245;BME280;25963;42.694;23.600;2022-07-05T09:08:37;95237.16;;;39.87;21.74
40245;BME280;25963;42.694;23.600;2022-07-05T09:11:11;95228.69;;;39.53;22.23
40245;BME280;25963;42.694;23.600;2022-07-05T09:13:40;95228.38;;;40.03;20.37
40245;BME280;25963;42.694;23.600;2022-07-05T09:16:06;95234.66;;;39.41;20.99
40245;BME280;25963;42.694;23.600;2022-07-05T09:18:49;95230.25;;;39.54;22.63
40245;BME280;25963;42.694;23.600;2022-07-05T09:21:22;95217.94;;;40.25;24.08
40245;BME280;25963;42.694;23.600;2022-07-05T09:23:59;95215.88;;;39.88;19.47
40245;BME280;25963;42.694;23.600;2022-07-05T09:26:48;95213.94;;;40.33;20.73
40245;BME280;25963;42.694;23.600;2022-07-05T09:29:20;95218.31;;;39.71;19.56
40245;BME280;25963;42.694;23.600;2022-07-05T09:31:49;95206.47;;;39.71;20.00
40245;BME280;25963;42.694;23.600;2022-07-05T09:34:16;95206.41;;;39.85;22.49
40245;BME280;25963;42.694;23.600;2022-07-05T09:39:13;95205.84;;;39.49;20.59
40245;BME280;25963;42.694;23.600;2022-07-05T09:41:39;95200.06;;;39.88;22.76
40245;BME280;25963;42.694;23.600;2022-07-05T09:44:04;95191.69;;;40.44;21.96
40245;BME280;25963;42.694;23.600;2022-07-05T09:46:31;95206.09;;;41.04;20.38
40245;BME280;25963;42.694;23.600;2022-07-05T09:48:57;95188.03;;;39.57;20.49
40245;BME280;25963;42.694;23.600;2022-07-05T09:51:22;95186.88;;;38.63;21.60
40245;BME280;25963;42.694;23.600;2022-07-05T09:53:55;95188.25;;;39.84;25.29
40245;BME280;25963;42.694;23.600;2022-07-05T09:56:21;95187.13;;;39.78;21.06
40245;BME280;25963;42.694;23.600;2022-07-05T09:58:49;95183.56;;;39.81;24.51
40245;BME280;25963;42.694;23.600;2022-07-05T10:01:29;95184.41;;;38.83;22.40
40245;BME280;25963;42.694;23.600;2022-07-05T10:03:58;95192.97;;;39.87;23.06
40245;BME280;25963;42.694;23.600;2022-07-05T10:06:26;95173.84;;;40.11;24.76
40245;BME280;25963;42.694;23.600;2022-07-05T10:08:55;95169.44;;;40.17;23.14
40245;BME280;25963;42.694;23.600;2022-07-05T10:11:21;95189.47;;;39.06;21.72
40245;BME280;25963;42.694;23.600;2022-07-05T10:13:52;95169.47;;;39.65;23.82
40245;BME280;25963;42.694;23.600;2022-07-05T10:16:18;95179.22;;;40.29;23.08
40245;BME280;25963;42.694;23.600;2022-07-05T10:18:50;95163.72;;;39.93;23.91
40245;BME280;25963;42.694;23.600;2022-07-05T10:21:18;95170.72;;;40.09;21.94
40245;BME280;25963;42.694;23.600;2022-07-05T10:23:45;95160.41;;;38.91;23.06
40245;BME280;25963;42.694;23.600;2022-07-05T10:26:12;95175.28;;;39.04;22.30
40245;BME280;25963;42.694;23.600;2022-07-05T10:28:46;95153.53;;;39.31;23.13
40245;BME280;25963;42.694;23.600;2022-07-05T10:31:14;95164.03;;;39.51;22.61
40245;BME280;25963;42.694;23.600;2022-07-05T10:33:40;95170.38;;;39.47;22.75
40245;BME280;25963;42.694;23.600;2022-07-05T10:36:07;95154.84;;;39.01;22.86
40245;BME280;25963;42.694;23.600;2022-07-05T10:38:45;95154.56;;;38.67;22.77
40245;BME280;25963;42.694;23.600;2022-07-05T10:41:14;95168.19;;;39.14;22.97
40245;BME280;25963;42.694;23.600;2022-07-05T10:43:42;95153.50;;;37.93;24.44
40245;BME280;25963;42.694;23.600;2022-07-05T10:46:08;95148.00;;;38.04;25.83
40245;BME280;25963;42.694;23.600;2022-07-05T10:48:34;95134.53;;;38.49;25.79
40245;BME280;25963;42.694;23.600;2022-07-05T10:51:14;95140.38;;;38.69;23.94
40245;BME280;25963;42.694;23.600;2022-07-05T11:06:39;95122.38;;;39.27;26.71
40245;BME280;25963;42.694;23.600;2022-07-05T11:14:29;95121.66;;;40.58;22.07
40245;BME280;25963;42.694;23.600;2022-07-05T11:17:14;95119.28;;;39.81;22.69
40245;BME280;25963;42.694;23.600;2022-07-05T11:20:05;95121.34;;;39.66;22.86
40245;BME280;25963;42.694;23.600;2022-07-05T11:22:32;95127.34;;;38.76;23.37
40245;BME280;25963;42.694;23.600;2022-07-05T11:24:59;95115.16;;;38.74;24.22
40245;BME280;25963;42.694;23.600;2022-07-05T11:27:25;95106.06;;;38.88;23.85
40245;BME280;25963;42.694;23.600;2022-07-05T11:29:52;95099.25;;;39.66;24.64
40245;BME280;25963;42.694;23.600;2022-07-05T11:32:23;95113.06;;;39.66;23.14
40245;BME280;25963;42.694;23.600;2022-07-05T11:34:53;95107.63;;;39.55;23.56
40245;BME280;25963;42.694;23.600;2022-07-05T11:37:21;95118.66;;;38.81;24.12
40245;BME280;25963;42.694;23.600;2022-07-05T11:42:49;95110.63;;;37.99;25.53
40245;BME280;25963;42.694;23.600;2022-07-05T11:45:15;95113.78;;;37.58;25.78
40245;BME280;25963;42.694;23.600;2022-07-05T11:47:41;95103.13;;;37.39;26.47
40245;BME280;25963;42.694;23.600;2022-07-05T11:50:08;95097.66;;;37.75;25.87
40245;BME280;25963;42.694;23.600;2022-07-05T11:52:37;95090.97;;;37.97;25.29
40245;BME280;25963;42.694;23.600;2022-07-05T11:55:06;95082.28;;;38.02;27.05
40245;BME280;25963;42.694;23.600;2022-07-05T11:57:32;95091.28;;;38.31;25.08
40245;BME280;25963;42.694;23.600;2022-07-05T11:59:57;95075.50;;;38.46;25.41
40245;BME280;25963;42.694;23.600;2022-07-05T12:02:23;95081.97;;;39.58;23.16
40245;BME280;25963;42.694;23.600;2022-07-05T12:04:55;95075.97;;;40.12;23.39
40245;BME280;25963;42.694;23.600;2022-07-05T12:07:29;95070.78;;;39.31;23.71
40245;BME280;25963;42.694;23.600;2022-07-05T12:09:56;95070.56;;;40.01;22.03
40245;BME280;25963;42.694;23.600;2022-07-05T12:12:40;95071.34;;;40.02;21.81
40245;BME280;25963;42.694;23.600;2022-07-05T12:15:10;95075.50;;;40.21;23.65
40245;BME280;25963;42.694;23.600;2022-07-05T12:17:37;95081.47;;;40.15;22.77
40245;BME280;25963;42.694;23.600;2022-07-05T12:20:08;95074.91;;;39.54;24.63
40245;BME280;25963;42.694;23.600;2022-07-05T12:22:36;95072.38;;;38.48;23.83
40245;BME280;25963;42.694;23.600;2022-07-05T12:25:04;95073.88;;;38.63;24.64
40245;BME280;25963;42.694;23.600;2022-07-05T12:27:33;95078.75;;;38.12;25.71
40245;BME280;25963;42.694;23.600;2022-07-05T12:30:00;95069.22;;;38.35;25.66
40245;BME280;25963;42.694;23.600;2022-07-05T12:32:27;95068.47;;;38.42;25.54
40245;BME280;25963;42.694;23.600;2022-07-05T12:34:55;95065.16;;;38.72;25.04
40245;BME280;25963;42.694;23.600;2022-07-05T12:37:22;95060.09;;;39.33;23.27
40245;BME280;25963;42.694;23.600;2022-07-05T12:39:49;95067.44;;;38.91;24.17
40245;BME280;25963;42.694;23.600;2022-07-05T12:42:34;95059.78;;;38.43;23.28
40245;BME280;25963;42.694;23.600;2022-07-05T12:47:58;95049.84;;;39.37;23.39
40245;BME280;25963;42.694;23.600;2022-07-05T12:50:23;95040.31;;;39.42;22.13
40245;BME280;25963;42.694;23.600;2022-07-05T12:53:06;95048.13;;;38.98;22.35
40245;BME280;25963;42.694;23.600;2022-07-05T12:56:04;95049.16;;;39.15;24.65
40245;BME280;25963;42.694;23.600;2022-07-05T12:58:55;95038.78;;;39.86;23.84
40245;BME280;25963;42.694;23.600;2022-07-05T13:01:27;95035.00;;;39.13;23.46
40245;BME280;25963;42.694;23.600;2022-07-05T13:06:51;95026.63;;;39.72;23.76
40245;BME280;25963;42.694;23.600;2022-07-05T13:09:35;95022.09;;;38.99;23.23
40245;BME280;25963;42.694;23.600;2022-07-05T13:14:40;95012.03;;;39.34;23.52
40245;BME280;25963;42.694;23.600;2022-07-05T13:17:07;95010.28;;;39.51;23.67
40245;BME280;25963;42.694;23.600;2022-07-05T13:19:33;95007.38;;;39.20;23.75
40245;BME280;25963;42.694;23.600;2022-07-05T13:21:58;95005.59;;;39.89;23.13
40245;BME280;25963;42.694;23.600;2022-07-05T13:24:25;95006.16;;;39.21;23.63
40245;BME280;25963;42.694;23.600;2022-07-05T13:26:51;95003.84;;;38.53;24.47
40245;BME280;25963;42.694;23.600;2022-07-05T13:29:16;95008.25;;;38.33;24.65